Terminal Aerodrome Forecast
Issued by NWS New Orleans/Baton Rouge, LA

Home | Current Version | Previous Version | Text Only | Print | Product List | Glossary On
Versions: 1 2 3 4 5 6 7 8 9 10 11 12 13 14 15 16 17 18 19 20 21 22 23 24 25 26
241
FTUS44 KLIX 230520
TAFBTR
TAF
KBTR 230520Z 2306/2406 14011KT P6SM -RA SCT005 BKN012 OVC045
     FM230700 VRB04KT 6SM -SHRA VCTS OVC008CB
     FM231500 30005KT P6SM SHRA VCTS BKN015CB BKN045
     FM231700 29007KT P6SM SCT030 BKN060 PROB30 2401/2406 3SM SHRA
      BR BKN030 BKN060=

USA.gov is the U.S. government's official web portal to all federal, state and local government web resources and services.